sensor_id;sensor_type;location;lat;lon;timestamp;P1;durP1;ratioP1;P2;durP2;ratioP2
54849;SDS011;47660;51.334;12.396;2023-02-15T00:01:45;27.08;;;10.50;;
54849;SDS011;47660;51.334;12.396;2023-02-15T00:04:14;25.15;;;11.45;;
54849;SDS011;47660;51.334;12.396;2023-02-15T00:06:44;27.15;;;10.95;;
54849;SDS011;47660;51.334;12.396;2023-02-15T00:09:12;22.95;;;10.63;;
54849;SDS011;47660;51.334;12.396;2023-02-15T00:11:40;28.33;;;11.63;;
54849;SDS011;47660;51.334;12.396;2023-02-15T00:14:19;22.45;;;10.30;;
54849;SDS011;47660;51.334;12.396;2023-02-15T00:16:46;25.67;;;11.00;;
54849;SDS011;47660;51.334;12.396;2023-02-15T00:19:13;25.45;;;9.90;;
54849;SDS011;47660;51.334;12.396;2023-02-15T00:21:40;27.88;;;10.80;;
54849;SDS011;47660;51.334;12.396;2023-02-15T00:24:07;28.20;;;11.82;;
54849;SDS011;47660;51.334;12.396;2023-02-15T00:26:34;22.25;;;10.40;;
54849;SDS011;47660;51.334;12.396;2023-02-15T00:29:01;24.70;;;10.23;;
54849;SDS011;47660;51.334;12.396;2023-02-15T00:31:28;26.25;;;11.02;;
54849;SDS011;47660;51.334;12.396;2023-02-15T00:34:06;25.52;;;9.98;;
54849;SDS011;47660;51.334;12.396;2023-02-15T00:36:35;24.48;;;9.82;;
54849;SDS011;47660;51.334;12.396;2023-02-15T00:39:01;20.98;;;9.65;;
54849;SDS011;47660;51.334;12.396;2023-02-15T00:41:30;17.50;;;8.80;;
54849;SDS011;47660;51.334;12.396;2023-02-15T00:43:59;28.30;;;10.90;;
54849;SDS011;47660;51.334;12.396;2023-02-15T00:46:25;26.50;;;10.75;;
54849;SDS011;47660;51.334;12.396;2023-02-15T00:48:53;25.70;;;11.38;;
54849;SDS011;47660;51.334;12.396;2023-02-15T00:51:18;22.00;;;9.73;;
54849;SDS011;47660;51.334;12.396;2023-02-15T00:53:45;22.45;;;10.02;;
54849;SDS011;47660;51.334;12.396;2023-02-15T00:56:11;27.52;;;12.30;;
54849;SDS011;47660;51.334;12.396;2023-02-15T00:58:36;19.17;;;9.32;;
54849;SDS011;47660;51.334;12.396;2023-02-15T01:01:03;21.52;;;8.70;;
54849;SDS011;47660;51.334;12.396;2023-02-15T01:03:30;17.48;;;8.50;;
54849;SDS011;47660;51.334;12.396;2023-02-15T01:05:56;22.23;;;10.02;;
54849;SDS011;47660;51.334;12.396;2023-02-15T01:08:21;21.70;;;10.00;;
54849;SDS011;47660;51.334;12.396;2023-02-15T01:10:46;22.33;;;10.10;;
54849;SDS011;47660;51.334;12.396;2023-02-15T01:13:12;15.32;;;8.40;;
54849;SDS011;47660;51.334;12.396;2023-02-15T01:15:39;17.70;;;8.25;;
54849;SDS011;47660;51.334;12.396;2023-02-15T01:18:05;18.90;;;8.80;;
54849;SDS011;47660;51.334;12.396;2023-02-15T01:20:33;16.15;;;7.93;;
54849;SDS011;47660;51.334;12.396;2023-02-15T01:23:01;18.35;;;8.68;;
54849;SDS011;47660;51.334;12.396;2023-02-15T01:25:29;18.23;;;7.38;;
54849;SDS011;47660;51.334;12.396;2023-02-15T01:27:55;20.88;;;8.75;;
54849;SDS011;47660;51.334;12.396;2023-02-15T01:30:20;18.38;;;8.38;;
54849;SDS011;47660;51.334;12.396;2023-02-15T01:32:45;18.90;;;7.63;;
54849;SDS011;47660;51.334;12.396;2023-02-15T01:35:11;13.73;;;6.78;;
54849;SDS011;47660;51.334;12.396;2023-02-15T01:37:36;17.73;;;7.55;;
54849;SDS011;47660;51.334;12.396;2023-02-15T01:40:05;19.15;;;6.97;;
54849;SDS011;47660;51.334;12.396;2023-02-15T01:42:33;16.80;;;7.43;;
54849;SDS011;47660;51.334;12.396;2023-02-15T01:45:00;20.55;;;8.63;;
54849;SDS011;47660;51.334;12.396;2023-02-15T01:52:45;18.83;;;8.50;;
54849;SDS011;47660;51.334;12.396;2023-02-15T01:55:24;20.08;;;9.02;;
54849;SDS011;47660;51.334;12.396;2023-02-15T01:57:52;17.35;;;8.05;;
54849;SDS011;47660;51.334;12.396;2023-02-15T02:00:20;16.67;;;7.15;;
54849;SDS011;47660;51.334;12.396;2023-02-15T02:02:46;16.42;;;7.28;;
54849;SDS011;47660;51.334;12.396;2023-02-15T02:05:16;14.27;;;7.82;;
54849;SDS011;47660;51.334;12.396;2023-02-15T02:07:44;18.73;;;7.63;;
54849;SDS011;47660;51.334;12.396;2023-02-15T02:10:13;17.67;;;8.30;;
54849;SDS011;47660;51.334;12.396;2023-02-15T02:12:40;15.63;;;6.95;;
54849;SDS011;47660;51.334;12.396;2023-02-15T02:15:09;15.50;;;7.88;;
54849;SDS011;47660;51.334;12.396;2023-02-15T02:17:43;13.00;;;7.13;;
54849;SDS011;47660;51.334;12.396;2023-02-15T02:26:04;18.63;;;8.07;;
54849;SDS011;47660;51.334;12.396;2023-02-15T02:34:30;15.80;;;7.10;;
54849;SDS011;47660;51.334;12.396;2023-02-15T02:37:28;14.25;;;6.43;;
54849;SDS011;47660;51.334;12.396;2023-02-15T02:40:11;14.02;;;6.78;;
54849;SDS011;47660;51.334;12.396;2023-02-15T02:42:45;15.88;;;6.82;;
54849;SDS011;47660;51.334;12.396;2023-02-15T02:45:25;15.00;;;7.43;;
54849;SDS011;47660;51.334;12.396;2023-02-15T02:48:16;17.63;;;8.02;;
54849;SDS011;47660;51.334;12.396;2023-02-15T02:50:50;12.27;;;6.43;;
54849;SDS011;47660;51.334;12.396;2023-02-15T02:53:18;21.90;;;8.32;;
54849;SDS011;47660;51.334;12.396;2023-02-15T03:00:57;17.58;;;7.72;;
54849;SDS011;47660;51.334;12.396;2023-02-15T03:06:00;14.90;;;6.88;;
54849;SDS011;47660;51.334;12.396;2023-02-15T03:08:47;13.23;;;6.82;;
54849;SDS011;47660;51.334;12.396;2023-02-15T03:11:18;14.98;;;6.57;;
54849;SDS011;47660;51.334;12.396;2023-02-15T03:13:46;13.10;;;7.00;;
54849;SDS011;47660;51.334;12.396;2023-02-15T03:16:13;11.32;;;5.68;;
54849;SDS011;47660;51.334;12.396;2023-02-15T03:19:01;16.60;;;7.13;;
54849;SDS011;47660;51.334;12.396;2023-02-15T03:24:16;10.75;;;6.07;;
54849;SDS011;47660;51.334;12.396;2023-02-15T03:26:46;11.73;;;6.40;;
54849;SDS011;47660;51.334;12.396;2023-02-15T03:29:15;14.75;;;6.53;;
54849;SDS011;47660;51.334;12.396;2023-02-15T03:31:45;14.68;;;6.40;;
54849;SDS011;47660;51.334;12.396;2023-02-15T03:34:15;15.23;;;6.75;;
54849;SDS011;47660;51.334;12.396;2023-02-15T03:36:59;15.07;;;6.43;;
54849;SDS011;47660;51.334;12.396;2023-02-15T03:39:50;10.80;;;5.68;;
54849;SDS011;47660;51.334;12.396;2023-02-15T03:42:40;12.93;;;6.97;;
54849;SDS011;47660;51.334;12.396;2023-02-15T03:45:10;15.60;;;6.30;;
54849;SDS011;47660;51.334;12.396;2023-02-15T03:47:41;15.60;;;6.78;;
54849;SDS011;47660;51.334;12.396;2023-02-15T03:50:16;13.15;;;7.18;;
54849;SDS011;47660;51.334;12.396;2023-02-15T03:53:05;12.95;;;6.65;;
54849;SDS011;47660;51.334;12.396;2023-02-15T03:55:37;11.90;;;5.45;;
54849;SDS011;47660;51.334;12.396;2023-02-15T03:58:02;12.25;;;5.45;;
54849;SDS011;47660;51.334;12.396;2023-02-15T04:01:00;15.07;;;7.03;;
54849;SDS011;47660;51.334;12.396;2023-02-15T04:03:53;9.43;;;5.47;;
54849;SDS011;47660;51.334;12.396;2023-02-15T04:06:25;13.65;;;5.55;;
54849;SDS011;47660;51.334;12.396;2023-02-15T04:08:50;13.98;;;6.38;;
54849;SDS011;47660;51.334;12.396;2023-02-15T04:11:37;15.25;;;6.88;;
54849;SDS011;47660;51.334;12.396;2023-02-15T04:14:05;11.02;;;6.07;;
54849;SDS011;47660;51.334;12.396;2023-02-15T04:16:49;6.78;;;5.22;;
54849;SDS011;47660;51.334;12.396;2023-02-15T04:19:16;19.52;;;7.72;;
54849;SDS011;47660;51.334;12.396;2023-02-15T04:22:00;10.85;;;5.65;;
54849;SDS011;47660;51.334;12.396;2023-02-15T04:24:44;11.80;;;6.43;;
54849;SDS011;47660;51.334;12.396;2023-02-15T04:27:28;12.68;;;5.55;;
54849;SDS011;47660;51.334;12.396;2023-02-15T04:29:53;10.73;;;5.45;;
54849;SDS011;47660;51.334;12.396;2023-02-15T04:32:19;11.68;;;5.82;;
54849;SDS011;47660;51.334;12.396;2023-02-15T04:34:44;11.10;;;5.20;;
54849;SDS011;47660;51.334;12.396;2023-02-15T04:37:09;11.65;;;5.78;;
54849;SDS011;47660;51.334;12.396;2023-02-15T04:39:35;8.20;;;4.75;;
54849;SDS011;47660;51.334;12.396;2023-02-15T04:42:03;13.27;;;5.95;;
54849;SDS011;47660;51.334;12.396;2023-02-15T04:44:28;9.88;;;5.28;;
54849;SDS011;47660;51.334;12.396;2023-02-15T04:46:54;13.00;;;5.82;;
54849;SDS011;47660;51.334;12.396;2023-02-15T04:49:19;13.65;;;5.90;;
54849;SDS011;47660;51.334;12.396;2023-02-15T04:51:45;10.73;;;5.68;;
54849;SDS011;47660;51.334;12.396;2023-02-15T04:54:10;11.68;;;5.68;;
54849;SDS011;47660;51.334;12.396;2023-02-15T04:56:36;8.27;;;4.32;;
54849;SDS011;47660;51.334;12.396;2023-02-15T04:59:03;11.88;;;5.68;;
54849;SDS011;47660;51.334;12.396;2023-02-15T05:01:29;9.50;;;5.57;;
54849;SDS011;47660;51.334;12.396;2023-02-15T05:03:54;12.40;;;5.93;;
54849;SDS011;47660;51.334;12.396;2023-02-15T05:06:20;11.68;;;5.47;;
54849;SDS011;47660;51.334;12.396;2023-02-15T05:08:48;12.18;;;6.18;;
54849;SDS011;47660;51.334;12.396;2023-02-15T05:11:13;10.10;;;5.57;;
54849;SDS011;47660;51.334;12.396;2023-02-15T05:13:41;11.88;;;4.43;;
54849;SDS011;47660;51.334;12.396;2023-02-15T05:16:09;11.63;;;5.40;;
54849;SDS011;47660;51.334;12.396;2023-02-15T05:18:34;9.40;;;5.10;;
54849;SDS011;47660;51.334;12.396;2023-02-15T05:20:59;14.85;;;6.07;;
54849;SDS011;47660;51.334;12.396;2023-02-15T05:23:25;11.23;;;5.18;;
54849;SDS011;47660;51.334;12.396;2023-02-15T05:25:50;9.85;;;4.75;;
54849;SDS011;47660;51.334;12.396;2023-02-15T05:28:35;10.45;;;5.30;;
54849;SDS011;47660;51.334;12.396;2023-02-15T05:31:03;10.35;;;5.22;;
54849;SDS011;47660;51.334;12.396;2023-02-15T05:33:35;8.98;;;4.97;;
54849;SDS011;47660;51.334;12.396;2023-02-15T05:36:01;8.07;;;4.75;;
54849;SDS011;47660;51.334;12.396;2023-02-15T05:38:30;10.68;;;5.40;;
54849;SDS011;47660;51.334;12.396;2023-02-15T05:40:58;10.27;;;4.90;;
54849;SDS011;47660;51.334;12.396;2023-02-15T05:43:26;11.10;;;5.43;;
54849;SDS011;47660;51.334;12.396;2023-02-15T05:45:52;11.27;;;5.32;;
54849;SDS011;47660;51.334;12.396;2023-02-15T05:48:20;10.30;;;5.50;;
54849;SDS011;47660;51.334;12.396;2023-02-15T05:51:04;15.77;;;6.15;;
54849;SDS011;47660;51.334;12.396;2023-02-15T05:53:32;9.98;;;5.78;;
54849;SDS011;47660;51.334;12.396;2023-02-15T05:55:58;11.32;;;4.93;;
54849;SDS011;47660;51.334;12.396;2023-02-15T05:58:29;9.82;;;4.95;;
54849;SDS011;47660;51.334;12.396;2023-02-15T06:00:56;9.10;;;4.55;;
54849;SDS011;47660;51.334;12.396;2023-02-15T06:03:22;9.63;;;5.35;;
54849;SDS011;47660;51.334;12.396;2023-02-15T06:05:50;12.30;;;5.38;;
54849;SDS011;47660;51.334;12.396;2023-02-15T06:08:16;10.70;;;6.03;;
54849;SDS011;47660;51.334;12.396;2023-02-15T06:10:42;11.80;;;4.32;;
54849;SDS011;47660;51.334;12.396;2023-02-15T06:13:12;9.80;;;5.22;;
54849;SDS011;47660;51.334;12.396;2023-02-15T06:15:41;10.45;;;5.50;;
54849;SDS011;47660;51.334;12.396;2023-02-15T06:18:06;13.05;;;5.50;;
54849;SDS011;47660;51.334;12.396;2023-02-15T06:20:31;9.68;;;4.82;;
54849;SDS011;47660;51.334;12.396;2023-02-15T06:22:59;8.73;;;4.57;;
54849;SDS011;47660;51.334;12.396;2023-02-15T06:25:25;13.52;;;6.47;;
54849;SDS011;47660;51.334;12.396;2023-02-15T06:27:51;13.77;;;6.07;;
54849;SDS011;47660;51.334;12.396;2023-02-15T06:30:16;11.25;;;5.15;;
54849;SDS011;47660;51.334;12.396;2023-02-15T06:32:42;16.60;;;5.85;;
54849;SDS011;47660;51.334;12.396;2023-02-15T06:35:10;9.15;;;4.88;;
54849;SDS011;47660;51.334;12.396;2023-02-15T06:37:36;6.90;;;4.38;;
54849;SDS011;47660;51.334;12.396;2023-02-15T06:40:09;8.60;;;5.13;;
54849;SDS011;47660;51.334;12.396;2023-02-15T06:42:39;9.20;;;4.78;;
54849;SDS011;47660;51.334;12.396;2023-02-15T06:45:06;9.35;;;4.70;;
54849;SDS011;47660;51.334;12.396;2023-02-15T06:47:34;14.38;;;5.70;;
54849;SDS011;47660;51.334;12.396;2023-02-15T06:50:00;8.50;;;4.63;;
54849;SDS011;47660;51.334;12.396;2023-02-15T06:52:25;7.75;;;4.93;;
54849;SDS011;47660;51.334;12.396;2023-02-15T06:54:51;12.02;;;5.50;;
54849;SDS011;47660;51.334;12.396;2023-02-15T06:57:16;8.48;;;5.07;;
54849;SDS011;47660;51.334;12.396;2023-02-15T06:59:42;8.35;;;4.45;;
54849;SDS011;47660;51.334;12.396;2023-02-15T07:02:08;12.15;;;5.03;;
54849;SDS011;47660;51.334;12.396;2023-02-15T07:04:35;7.88;;;4.20;;
54849;SDS011;47660;51.334;12.396;2023-02-15T07:07:01;14.40;;;5.15;;
54849;SDS011;47660;51.334;12.396;2023-02-15T07:09:26;10.02;;;5.05;;
54849;SDS011;47660;51.334;12.396;2023-02-15T07:11:52;7.72;;;4.28;;
54849;SDS011;47660;51.334;12.396;2023-02-15T07:14:35;10.60;;;6.03;;
54849;SDS011;47660;51.334;12.396;2023-02-15T07:17:01;7.22;;;4.50;;
54849;SDS011;47660;51.334;12.396;2023-02-15T07:19:26;4.47;;;3.17;;
54849;SDS011;47660;51.334;12.396;2023-02-15T07:21:52;8.57;;;4.47;;
54849;SDS011;47660;51.334;12.396;2023-02-15T07:24:17;11.32;;;5.80;;
54849;SDS011;47660;51.334;12.396;2023-02-15T07:26:42;9.32;;;5.10;;
54849;SDS011;47660;51.334;12.396;2023-02-15T07:29:13;10.05;;;4.82;;
54849;SDS011;47660;51.334;12.396;2023-02-15T07:31:41;11.38;;;6.28;;
54849;SDS011;47660;51.334;12.396;2023-02-15T07:34:10;6.03;;;4.03;;
54849;SDS011;47660;51.334;12.396;2023-02-15T07:36:35;10.52;;;5.30;;
54849;SDS011;47660;51.334;12.396;2023-02-15T07:39:01;16.05;;;5.15;;
54849;SDS011;47660;51.334;12.396;2023-02-15T07:41:29;8.48;;;4.32;;
54849;SDS011;47660;51.334;12.396;2023-02-15T07:43:56;8.85;;;4.28;;
54849;SDS011;47660;51.334;12.396;2023-02-15T07:46:24;7.82;;;4.60;;
54849;SDS011;47660;51.334;12.396;2023-02-15T07:48:49;9.57;;;4.05;;
54849;SDS011;47660;51.334;12.396;2023-02-15T07:51:18;8.30;;;4.65;;
54849;SDS011;47660;51.334;12.396;2023-02-15T07:53:43;9.32;;;4.97;;
54849;SDS011;47660;51.334;12.396;2023-02-15T07:56:10;8.57;;;4.65;;
54849;SDS011;47660;51.334;12.396;2023-02-15T07:58:39;6.75;;;4.05;;
54849;SDS011;47660;51.334;12.396;2023-02-15T08:01:24;6.68;;;3.63;;
54849;SDS011;47660;51.334;12.396;2023-02-15T08:03:52;7.78;;;3.78;;
54849;SDS011;47660;51.334;12.396;2023-02-15T08:06:18;8.00;;;3.88;;
54849;SDS011;47660;51.334;12.396;2023-02-15T08:08:47;6.63;;;3.70;;
54849;SDS011;47660;51.334;12.396;2023-02-15T08:11:17;9.27;;;3.88;;
54849;SDS011;47660;51.334;12.396;2023-02-15T08:16:39;6.38;;;3.50;;
54849;SDS011;47660;51.334;12.396;2023-02-15T08:21:40;4.85;;;2.65;;
54849;SDS011;47660;51.334;12.396;2023-02-15T08:24:07;8.43;;;4.03;;
54849;SDS011;47660;51.334;12.396;2023-02-15T08:26:34;6.32;;;3.83;;
54849;SDS011;47660;51.334;12.396;2023-02-15T08:29:00;5.45;;;3.20;;
54849;SDS011;47660;51.334;12.396;2023-02-15T08:31:27;5.88;;;3.50;;
54849;SDS011;47660;51.334;12.396;2023-02-15T08:33:53;4.45;;;2.65;;
54849;SDS011;47660;51.334;12.396;2023-02-15T08:36:21;4.88;;;2.83;;
54849;SDS011;47660;51.334;12.396;2023-02-15T08:38:48;3.20;;;1.98;;
54849;SDS011;47660;51.334;12.396;2023-02-15T08:41:21;10.20;;;3.88;;
54849;SDS011;47660;51.334;12.396;2023-02-15T08:43:49;8.15;;;4.07;;
54849;SDS011;47660;51.334;12.396;2023-02-15T08:46:18;3.53;;;2.33;;
54849;SDS011;47660;51.334;12.396;2023-02-15T08:48:45;7.93;;;3.92;;
54849;SDS011;47660;51.334;12.396;2023-02-15T08:53:49;7.40;;;3.45;;
54849;SDS011;47660;51.334;12.396;2023-02-15T08:56:38;9.63;;;4.18;;
54849;SDS011;47660;51.334;12.396;2023-02-15T08:59:11;5.55;;;2.92;;
54849;SDS011;47660;51.334;12.396;2023-02-15T09:01:41;7.80;;;3.85;;
54849;SDS011;47660;51.334;12.396;2023-02-15T09:04:09;5.93;;;3.25;;
54849;SDS011;47660;51.334;12.396;2023-02-15T09:06:40;6.47;;;2.97;;
54849;SDS011;47660;51.334;12.396;2023-02-15T09:09:08;6.18;;;3.60;;
54849;SDS011;47660;51.334;12.396;2023-02-15T09:11:35;6.22;;;3.67;;
54849;SDS011;47660;51.334;12.396;2023-02-15T09:14:05;6.25;;;3.03;;
54849;SDS011;47660;51.334;12.396;2023-02-15T09:16:35;4.72;;;3.10;;
54849;SDS011;47660;51.334;12.396;2023-02-15T09:19:02;6.70;;;3.58;;
54849;SDS011;47660;51.334;12.396;2023-02-15T09:21:31;4.00;;;1.55;;
54849;SDS011;47660;51.334;12.396;2023-02-15T09:24:02;6.68;;;3.13;;
54849;SDS011;47660;51.334;12.396;2023-02-15T09:26:30;5.72;;;3.15;;
54849;SDS011;47660;51.334;12.396;2023-02-15T09:29:00;6.13;;;2.22;;
54849;SDS011;47660;51.334;12.396;2023-02-15T09:31:30;5.00;;;2.35;;
54849;SDS011;47660;51.334;12.396;2023-02-15T09:33:59;3.03;;;1.67;;
54849;SDS011;47660;51.334;12.396;2023-02-15T09:38:59;3.60;;;2.38;;
54849;SDS011;47660;51.334;12.396;2023-02-15T10:03:43;5.60;;;2.55;;
54849;SDS011;47660;51.334;12.396;2023-02-15T10:06:42;3.47;;;1.63;;
54849;SDS011;47660;51.334;12.396;2023-02-15T10:15:15;3.60;;;2.35;;
54849;SDS011;47660;51.334;12.396;2023-02-15T10:23:17;2.50;;;1.70;;
54849;SDS011;47660;51.334;12.396;2023-02-15T10:28:16;4.25;;;2.67;;
54849;SDS011;47660;51.334;12.396;2023-02-15T10:55:45;6.00;;;3.00;;
54849;SDS011;47660;51.334;12.396;2023-02-15T11:01:00;6.60;;;3.42;;
54849;SDS011;47660;51.334;12.396;2023-02-15T11:06:20;7.43;;;3.15;;
54849;SDS011;47660;51.334;12.396;2023-02-15T11:08:51;5.93;;;3.40;;
54849;SDS011;47660;51.334;12.396;2023-02-15T11:11:25;6.03;;;3.00;;
54849;SDS011;47660;51.334;12.396;2023-02-15T11:14:02;5.30;;;3.00;;
54849;SDS011;47660;51.334;12.396;2023-02-15T11:16:37;4.97;;;3.03;;
54849;SDS011;47660;51.334;12.396;2023-02-15T11:19:19;7.05;;;3.17;;
54849;SDS011;47660;51.334;12.396;2023-02-15T11:21:52;5.45;;;3.08;;
54849;SDS011;47660;51.334;12.396;2023-02-15T11:24:24;4.88;;;2.53;;
54849;SDS011;47660;51.334;12.396;2023-02-15T11:29:39;7.30;;;3.42;;
54849;SDS011;47660;51.334;12.396;2023-02-15T11:37:39;6.63;;;2.97;;
54849;SDS011;47660;51.334;12.396;2023-02-15T11:42:47;4.53;;;2.97;;
54849;SDS011;47660;51.334;12.396;2023-02-15T11:47:54;6.10;;;2.67;;
54849;SDS011;47660;51.334;12.396;2023-02-15T11:50:23;3.80;;;2.30;;
54849;SDS011;47660;51.334;12.396;2023-02-15T11:53:01;9.13;;;2.85;;
54849;SDS011;47660;51.334;12.396;2023-02-15T11:55:29;4.32;;;2.58;;
54849;SDS011;47660;51.334;12.396;2023-02-15T11:57:58;4.35;;;2.35;;
54849;SDS011;47660;51.334;12.396;2023-02-15T12:03:28;6.15;;;2.90;;
54849;SDS011;47660;51.334;12.396;2023-02-15T12:06:05;4.00;;;2.50;;
54849;SDS011;47660;51.334;12.396;2023-02-15T12:08:38;3.97;;;2.78;;
54849;SDS011;47660;51.334;12.396;2023-02-15T12:11:11;5.82;;;2.88;;
54849;SDS011;47660;51.334;12.396;2023-02-15T12:14:13;6.18;;;2.63;;
54849;SDS011;47660;51.334;12.396;2023-02-15T12:16:44;5.30;;;2.50;;
54849;SDS011;47660;51.334;12.396;2023-02-15T12:22:02;5.35;;;2.80;;
54849;SDS011;47660;51.334;12.396;2023-02-15T12:24:30;5.40;;;3.65;;
54849;SDS011;47660;51.334;12.396;2023-02-15T12:29:42;7.10;;;3.20;;
54849;SDS011;47660;51.334;12.396;2023-02-15T12:32:19;6.68;;;2.58;;
54849;SDS011;47660;51.334;12.396;2023-02-15T12:34:50;4.82;;;2.95;;
54849;SDS011;47660;51.334;12.396;2023-02-15T12:37:23;5.80;;;2.85;;
54849;SDS011;47660;51.334;12.396;2023-02-15T12:39:56;6.15;;;2.80;;
54849;SDS011;47660;51.334;12.396;2023-02-15T12:42:26;4.80;;;2.40;;
54849;SDS011;47660;51.334;12.396;2023-02-15T12:45:00;7.47;;;2.60;;
54849;SDS011;47660;51.334;12.396;2023-02-15T12:47:28;4.90;;;2.92;;
54849;SDS011;47660;51.334;12.396;2023-02-15T12:50:41;5.55;;;2.90;;
54849;SDS011;47660;51.334;12.396;2023-02-15T12:52:51;2.60;;;1.75;;
54849;SDS011;47660;51.334;12.396;2023-02-15T12:55:30;11.10;;;2.38;;
54849;SDS011;47660;51.334;12.396;2023-02-15T12:58:05;8.25;;;2.60;;
54849;SDS011;47660;51.334;12.396;2023-02-15T13:00:31;7.25;;;2.65;;
54849;SDS011;47660;51.334;12.396;2023-02-15T13:02:59;2.35;;;1.73;;
54849;SDS011;47660;51.334;12.396;2023-02-15T13:05:28;4.85;;;2.53;;
54849;SDS011;47660;51.334;12.396;2023-02-15T13:08:03;3.47;;;2.45;;
54849;SDS011;47660;51.334;12.396;2023-02-15T13:10:42;4.85;;;2.50;;
54849;SDS011;47660;51.334;12.396;2023-02-15T13:13:19;4.80;;;1.48;;
54849;SDS011;47660;51.334;12.396;2023-02-15T13:15:52;3.30;;;2.05;;
54849;SDS011;47660;51.334;12.396;2023-02-15T13:18:31;5.18;;;2.65;;
54849;SDS011;47660;51.334;12.396;2023-02-15T13:21:09;4.22;;;2.42;;
54849;SDS011;47660;51.334;12.396;2023-02-15T13:23:39;3.35;;;2.20;;
54849;SDS011;47660;51.334;12.396;2023-02-15T13:26:14;3.50;;;2.22;;
54849;SDS011;47660;51.334;12.396;2023-02-15T13:28:51;3.63;;;2.08;;
54849;SDS011;47660;51.334;12.396;2023-02-15T13:31:23;5.25;;;2.42;;
54849;SDS011;47660;51.334;12.396;2023-02-15T13:34:15;1.25;;;1.10;;
54849;SDS011;47660;51.334;12.396;2023-02-15T13:47:50;4.38;;;2.00;;
54849;SDS011;47660;51.334;12.396;2023-02-15T13:53:10;6.85;;;1.80;;
54849;SDS011;47660;51.334;12.396;2023-02-15T14:01:03;8.43;;;2.38;;
54849;SDS011;47660;51.334;12.396;2023-02-15T14:14:40;3.50;;;2.05;;
54849;SDS011;47660;51.334;12.396;2023-02-15T14:19:54;2.42;;;1.88;;
54849;SDS011;47660;51.334;12.396;2023-02-15T14:25:25;3.85;;;2.28;;
54849;SDS011;47660;51.334;12.396;2023-02-15T14:30:36;3.17;;;1.92;;
54849;SDS011;47660;51.334;12.396;2023-02-15T14:33:08;3.55;;;1.95;;
54849;SDS011;47660;51.334;12.396;2023-02-15T14:35:50;3.65;;;1.67;;
54849;SDS011;47660;51.334;12.396;2023-02-15T14:46:55;3.17;;;1.70;;
54849;SDS011;47660;51.334;12.396;2023-02-15T14:49:31;2.78;;;1.70;;
54849;SDS011;47660;51.334;12.396;2023-02-15T14:52:08;3.28;;;1.85;;
54849;SDS011;47660;51.334;12.396;2023-02-15T15:04:57;2.00;;;1.80;;
54849;SDS011;47660;51.334;12.396;2023-02-15T15:12:48;3.85;;;2.40;;
54849;SDS011;47660;51.334;12.396;2023-02-15T15:31:20;4.85;;;2.00;;
54849;SDS011;47660;51.334;12.396;2023-02-15T15:45:38;4.28;;;2.20;;
54849;SDS011;47660;51.334;12.396;2023-02-15T15:48:46;5.93;;;1.90;;
54849;SDS011;47660;51.334;12.396;2023-02-15T15:51:18;6.18;;;2.20;;
54849;SDS011;47660;51.334;12.396;2023-02-15T15:53:47;11.13;;;2.10;;
54849;SDS011;47660;51.334;12.396;2023-02-15T15:56:27;4.60;;;1.98;;
54849;SDS011;47660;51.334;12.396;2023-02-15T15:58:58;6.85;;;2.03;;
54849;SDS011;47660;51.334;12.396;2023-02-15T16:01:28;2.95;;;2.03;;
54849;SDS011;47660;51.334;12.396;2023-02-15T16:03:58;3.47;;;1.90;;
54849;SDS011;47660;51.334;12.396;2023-02-15T16:06:29;8.73;;;2.42;;
54849;SDS011;47660;51.334;12.396;2023-02-15T16:08:58;5.05;;;1.92;;
54849;SDS011;47660;51.334;12.396;2023-02-15T16:11:35;4.22;;;2.05;;
54849;SDS011;47660;51.334;12.396;2023-02-15T16:14:08;7.05;;;2.83;;
54849;SDS011;47660;51.334;12.396;2023-02-15T16:16:40;3.40;;;2.20;;
54849;SDS011;47660;51.334;12.396;2023-02-15T16:19:06;6.18;;;3.13;;
54849;SDS011;47660;51.334;12.396;2023-02-15T16:21:46;12.75;;;5.15;;
54849;SDS011;47660;51.334;12.396;2023-02-15T16:29:46;4.72;;;2.53;;
54849;SDS011;47660;51.334;12.396;2023-02-15T16:32:16;4.07;;;2.05;;
54849;SDS011;47660;51.334;12.396;2023-02-15T16:34:53;8.85;;;2.50;;
54849;SDS011;47660;51.334;12.396;2023-02-15T16:37:23;4.28;;;2.15;;
54849;SDS011;47660;51.334;12.396;2023-02-15T16:39:52;7.32;;;2.60;;
54849;SDS011;47660;51.334;12.396;2023-02-15T16:42:21;4.20;;;2.45;;
54849;SDS011;47660;51.334;12.396;2023-02-15T16:44:51;7.10;;;2.75;;
54849;SDS011;47660;51.334;12.396;2023-02-15T16:47:24;4.88;;;2.90;;
54849;SDS011;47660;51.334;12.396;2023-02-15T16:49:52;6.03;;;2.67;;
54849;SDS011;47660;51.334;12.396;2023-02-15T16:52:22;4.85;;;2.90;;
54849;SDS011;47660;51.334;12.396;2023-02-15T16:55:03;3.55;;;2.75;;
54849;SDS011;47660;51.334;12.396;2023-02-15T16:57:34;6.13;;;2.53;;
54849;SDS011;47660;51.334;12.396;2023-02-15T17:00:14;6.90;;;2.67;;
54849;SDS011;47660;51.334;12.396;2023-02-15T17:02:52;4.72;;;2.92;;
54849;SDS011;47660;51.334;12.396;2023-02-15T17:05:31;4.70;;;2.65;;
54849;SDS011;47660;51.334;12.396;2023-02-15T17:08:11;4.55;;;2.45;;
54849;SDS011;47660;51.334;12.396;2023-02-15T17:13:24;6.90;;;2.70;;
54849;SDS011;47660;51.334;12.396;2023-02-15T17:18:33;6.95;;;3.38;;
54849;SDS011;47660;51.334;12.396;2023-02-15T17:21:18;6.30;;;2.92;;
54849;SDS011;47660;51.334;12.396;2023-02-15T17:23:49;7.72;;;3.10;;
54849;SDS011;47660;51.334;12.396;2023-02-15T17:26:24;8.00;;;3.05;;
54849;SDS011;47660;51.334;12.396;2023-02-15T17:28:59;6.45;;;3.63;;
54849;SDS011;47660;51.334;12.396;2023-02-15T17:31:29;6.30;;;2.85;;
54849;SDS011;47660;51.334;12.396;2023-02-15T17:34:00;4.88;;;3.25;;
54849;SDS011;47660;51.334;12.396;2023-02-15T17:36:30;5.00;;;3.17;;
54849;SDS011;47660;51.334;12.396;2023-02-15T17:41:44;4.90;;;3.22;;
54849;SDS011;47660;51.334;12.396;2023-02-15T17:44:12;5.55;;;2.67;;
54849;SDS011;47660;51.334;12.396;2023-02-15T17:46:40;6.35;;;3.28;;
54849;SDS011;47660;51.334;12.396;2023-02-15T17:49:06;6.10;;;3.20;;
54849;SDS011;47660;51.334;12.396;2023-02-15T17:51:40;7.25;;;3.90;;
54849;SDS011;47660;51.334;12.396;2023-02-15T17:54:08;7.78;;;4.03;;
54849;SDS011;47660;51.334;12.396;2023-02-15T17:56:53;8.80;;;4.38;;
54849;SDS011;47660;51.334;12.396;2023-02-15T17:59:18;7.97;;;3.67;;
54849;SDS011;47660;51.334;12.396;2023-02-15T18:01:45;6.28;;;3.67;;
54849;SDS011;47660;51.334;12.396;2023-02-15T18:04:31;9.93;;;3.90;;
54849;SDS011;47660;51.334;12.396;2023-02-15T18:07:19;5.72;;;3.22;;
54849;SDS011;47660;51.334;12.396;2023-02-15T18:10:14;9.43;;;4.25;;
54849;SDS011;47660;51.334;12.396;2023-02-15T18:13:00;6.70;;;3.70;;
54849;SDS011;47660;51.334;12.396;2023-02-15T18:15:25;5.68;;;3.45;;
54849;SDS011;47660;51.334;12.396;2023-02-15T18:17:51;8.52;;;4.57;;
54849;SDS011;47660;51.334;12.396;2023-02-15T18:20:19;8.32;;;4.78;;
54849;SDS011;47660;51.334;12.396;2023-02-15T18:22:52;8.15;;;4.85;;
54849;SDS011;47660;51.334;12.396;2023-02-15T18:25:19;10.07;;;5.20;;
54849;SDS011;47660;51.334;12.396;2023-02-15T18:27:47;13.30;;;5.30;;
54849;SDS011;47660;51.334;12.396;2023-02-15T18:30:14;9.20;;;5.40;;
54849;SDS011;47660;51.334;12.396;2023-02-15T18:32:42;9.25;;;5.28;;
54849;SDS011;47660;51.334;12.396;2023-02-15T18:35:20;11.07;;;5.53;;
54849;SDS011;47660;51.334;12.396;2023-02-15T18:37:47;9.27;;;4.97;;
54849;SDS011;47660;51.334;12.396;2023-02-15T18:40:14;7.75;;;4.70;;
54849;SDS011;47660;51.334;12.396;2023-02-15T18:42:41;8.57;;;4.80;;